sensor_id;sensor_type;location;lat;lon;timestamp;temperature;humidity
10654;DHT22;5375;51.250;6.776;2023-03-23T00:02:30;20.10;50.60
10654;DHT22;5375;51.250;6.776;2023-03-23T00:05:01;20.10;50.60
10654;DHT22;5375;51.250;6.776;2023-03-23T00:07:28;20.10;50.60
10654;DHT22;5375;51.250;6.776;2023-03-23T00:09:55;20.10;50.60
10654;DHT22;5375;51.250;6.776;2023-03-23T00:12:22;20.10;50.60
10654;DHT22;5375;51.250;6.776;2023-03-23T00:14:55;20.10;50.60
10654;DHT22;5375;51.250;6.776;2023-03-23T00:17:20;20.10;50.60
10654;DHT22;5375;51.250;6.776;2023-03-23T00:19:46;20.00;51.10
10654;DHT22;5375;51.250;6.776;2023-03-23T00:22:17;20.00;50.50
10654;DHT22;5375;51.250;6.776;2023-03-23T00:24:45;20.00;50.50
10654;DHT22;5375;51.250;6.776;2023-03-23T00:27:10;20.10;50.50
10654;DHT22;5375;51.250;6.776;2023-03-23T00:29:40;20.10;50.50
10654;DHT22;5375;51.250;6.776;2023-03-23T00:32:08;20.00;50.50
10654;DHT22;5375;51.250;6.776;2023-03-23T00:34:41;20.00;50.50
10654;DHT22;5375;51.250;6.776;2023-03-23T00:37:10;20.00;50.50
10654;DHT22;5375;51.250;6.776;2023-03-23T00:39:36;20.00;50.40
10654;DHT22;5375;51.250;6.776;2023-03-23T00:42:04;20.00;50.40
10654;DHT22;5375;51.250;6.776;2023-03-23T00:44:31;20.00;50.40
10654;DHT22;5375;51.250;6.776;2023-03-23T00:46:57;20.00;50.40
10654;DHT22;5375;51.250;6.776;2023-03-23T00:49:24;20.00;50.40
10654;DHT22;5375;51.250;6.776;2023-03-23T00:51:51;20.00;50.40
10654;DHT22;5375;51.250;6.776;2023-03-23T00:54:18;20.00;50.40
10654;DHT22;5375;51.250;6.776;2023-03-23T00:56:44;20.00;50.40
10654;DHT22;5375;51.250;6.776;2023-03-23T00:59:09;20.10;50.40
10654;DHT22;5375;51.250;6.776;2023-03-23T01:01:35;20.00;50.90
10654;DHT22;5375;51.250;6.776;2023-03-23T01:04:02;20.00;50.40
10654;DHT22;5375;51.250;6.776;2023-03-23T01:06:30;20.00;50.40
10654;DHT22;5375;51.250;6.776;2023-03-23T01:08:57;20.00;50.40
10654;DHT22;5375;51.250;6.776;2023-03-23T01:11:23;20.00;50.40
10654;DHT22;5375;51.250;6.776;2023-03-23T01:13:50;20.00;50.40
10654;DHT22;5375;51.250;6.776;2023-03-23T01:16:16;20.00;50.30
10654;DHT22;5375;51.250;6.776;2023-03-23T01:18:41;20.00;50.30
10654;DHT22;5375;51.250;6.776;2023-03-23T01:21:10;20.00;50.90
10654;DHT22;5375;51.250;6.776;2023-03-23T01:23:37;20.00;50.30
10654;DHT22;5375;51.250;6.776;2023-03-23T01:26:04;20.00;50.30
10654;DHT22;5375;51.250;6.776;2023-03-23T01:28:31;20.00;50.30
10654;DHT22;5375;51.250;6.776;2023-03-23T01:31:02;20.00;50.30
10654;DHT22;5375;51.250;6.776;2023-03-23T01:33:28;20.00;50.30
10654;DHT22;5375;51.250;6.776;2023-03-23T01:35:54;20.00;50.30
10654;DHT22;5375;51.250;6.776;2023-03-23T01:38:19;20.00;50.30
10654;DHT22;5375;51.250;6.776;2023-03-23T01:40:45;19.90;50.20
10654;DHT22;5375;51.250;6.776;2023-03-23T01:43:13;20.00;50.20
10654;DHT22;5375;51.250;6.776;2023-03-23T01:45:40;20.00;50.20
10654;DHT22;5375;51.250;6.776;2023-03-23T01:48:31;20.00;50.20
10654;DHT22;5375;51.250;6.776;2023-03-23T01:51:10;20.00;50.20
10654;DHT22;5375;51.250;6.776;2023-03-23T01:53:42;20.00;50.20
10654;DHT22;5375;51.250;6.776;2023-03-23T01:56:09;20.00;50.20
10654;DHT22;5375;51.250;6.776;2023-03-23T01:58:46;20.00;50.20
10654;DHT22;5375;51.250;6.776;2023-03-23T02:01:13;20.00;50.20
10654;DHT22;5375;51.250;6.776;2023-03-23T02:03:42;20.00;50.20
10654;DHT22;5375;51.250;6.776;2023-03-23T02:06:09;20.00;50.20
10654;DHT22;5375;51.250;6.776;2023-03-23T02:08:35;20.00;50.20
10654;DHT22;5375;51.250;6.776;2023-03-23T02:11:08;20.00;50.20
10654;DHT22;5375;51.250;6.776;2023-03-23T02:13:33;20.00;50.20
10654;DHT22;5375;51.250;6.776;2023-03-23T02:21:39;20.00;50.20
10654;DHT22;5375;51.250;6.776;2023-03-23T02:35:52;19.90;50.50
10654;DHT22;5375;51.250;6.776;2023-03-23T02:39:13;20.00;50.60
10654;DHT22;5375;51.250;6.776;2023-03-23T02:41:22;19.90;50.60
10654;DHT22;5375;51.250;6.776;2023-03-23T02:43:49;19.90;50.70
10654;DHT22;5375;51.250;6.776;2023-03-23T02:46:16;19.90;50.70
10654;DHT22;5375;51.250;6.776;2023-03-23T02:48:43;20.00;50.80
10654;DHT22;5375;51.250;6.776;2023-03-23T02:51:12;20.00;50.80
10654;DHT22;5375;51.250;6.776;2023-03-23T02:53:40;20.00;50.90
10654;DHT22;5375;51.250;6.776;2023-03-23T02:56:08;20.00;51.00
10654;DHT22;5375;51.250;6.776;2023-03-23T02:58:35;20.00;51.00
10654;DHT22;5375;51.250;6.776;2023-03-23T03:02:00;20.00;51.00
10654;DHT22;5375;51.250;6.776;2023-03-23T03:04:10;20.00;51.10
10654;DHT22;5375;51.250;6.776;2023-03-23T03:12:06;20.00;51.10
10654;DHT22;5375;51.250;6.776;2023-03-23T03:14:38;20.00;51.10
10654;DHT22;5375;51.250;6.776;2023-03-23T03:17:27;20.00;51.20
10654;DHT22;5375;51.250;6.776;2023-03-23T03:20:02;20.00;51.20
10654;DHT22;5375;51.250;6.776;2023-03-23T03:22:41;20.00;51.20
10654;DHT22;5375;51.250;6.776;2023-03-23T03:25:08;20.00;51.20
10654;DHT22;5375;51.250;6.776;2023-03-23T03:27:35;20.00;51.30
10654;DHT22;5375;51.250;6.776;2023-03-23T03:30:26;20.00;51.20
10654;DHT22;5375;51.250;6.776;2023-03-23T03:32:53;20.00;51.30
10654;DHT22;5375;51.250;6.776;2023-03-23T03:35:22;19.90;51.30
10654;DHT22;5375;51.250;6.776;2023-03-23T03:37:48;20.00;51.40
10654;DHT22;5375;51.250;6.776;2023-03-23T03:40:18;20.00;51.50
10654;DHT22;5375;51.250;6.776;2023-03-23T03:45:14;20.00;51.50
10654;DHT22;5375;51.250;6.776;2023-03-23T03:47:41;20.00;51.50
10654;DHT22;5375;51.250;6.776;2023-03-23T03:50:06;20.00;51.40
10654;DHT22;5375;51.250;6.776;2023-03-23T03:52:33;20.00;51.40
10654;DHT22;5375;51.250;6.776;2023-03-23T03:54:59;20.00;51.40
10654;DHT22;5375;51.250;6.776;2023-03-23T03:59:51;20.00;51.30
10654;DHT22;5375;51.250;6.776;2023-03-23T04:02:18;20.00;51.30
10654;DHT22;5375;51.250;6.776;2023-03-23T04:04:49;20.00;51.30
10654;DHT22;5375;51.250;6.776;2023-03-23T04:07:15;20.00;51.20
10654;DHT22;5375;51.250;6.776;2023-03-23T04:09:43;20.00;51.80
10654;DHT22;5375;51.250;6.776;2023-03-23T04:12:08;20.00;51.20
10654;DHT22;5375;51.250;6.776;2023-03-23T04:14:34;20.00;51.10
10654;DHT22;5375;51.250;6.776;2023-03-23T04:17:00;20.00;51.10
10654;DHT22;5375;51.250;6.776;2023-03-23T04:21:54;20.00;51.10
10654;DHT22;5375;51.250;6.776;2023-03-23T04:24:21;20.00;51.10
10654;DHT22;5375;51.250;6.776;2023-03-23T04:29:18;20.00;51.10
10654;DHT22;5375;51.250;6.776;2023-03-23T04:31:44;19.90;51.00
10654;DHT22;5375;51.250;6.776;2023-03-23T04:36:39;19.90;51.00
10654;DHT22;5375;51.250;6.776;2023-03-23T04:39:04;19.90;51.00
10654;DHT22;5375;51.250;6.776;2023-03-23T04:41:35;19.90;51.00
10654;DHT22;5375;51.250;6.776;2023-03-23T04:46:29;19.90;50.90
10654;DHT22;5375;51.250;6.776;2023-03-23T04:53:49;20.00;51.10
10654;DHT22;5375;51.250;6.776;2023-03-23T04:58:41;20.00;51.10
10654;DHT22;5375;51.250;6.776;2023-03-23T05:01:09;20.00;51.20
10654;DHT22;5375;51.250;6.776;2023-03-23T05:03:34;20.10;51.30
10654;DHT22;5375;51.250;6.776;2023-03-23T05:06:02;20.10;51.30
10654;DHT22;5375;51.250;6.776;2023-03-23T05:08:28;20.10;51.20
10654;DHT22;5375;51.250;6.776;2023-03-23T05:10:59;20.10;51.20
10654;DHT22;5375;51.250;6.776;2023-03-23T05:13:27;20.10;51.20
10654;DHT22;5375;51.250;6.776;2023-03-23T05:15:54;20.10;51.20
10654;DHT22;5375;51.250;6.776;2023-03-23T05:18:20;20.10;51.20
10654;DHT22;5375;51.250;6.776;2023-03-23T05:20:46;20.10;51.30
10654;DHT22;5375;51.250;6.776;2023-03-23T05:23:12;20.10;51.20
10654;DHT22;5375;51.250;6.776;2023-03-23T05:25:39;20.10;51.10
10654;DHT22;5375;51.250;6.776;2023-03-23T05:28:10;20.10;51.10
10654;DHT22;5375;51.250;6.776;2023-03-23T05:30:37;20.10;51.10
10654;DHT22;5375;51.250;6.776;2023-03-23T05:35:30;20.10;51.00
10654;DHT22;5375;51.250;6.776;2023-03-23T05:37:55;20.20;51.10
10654;DHT22;5375;51.250;6.776;2023-03-23T05:40:22;20.10;51.00
10654;DHT22;5375;51.250;6.776;2023-03-23T05:45:17;20.20;51.10
10654;DHT22;5375;51.250;6.776;2023-03-23T05:50:10;20.20;51.10
10654;DHT22;5375;51.250;6.776;2023-03-23T05:52:36;20.20;51.10
10654;DHT22;5375;51.250;6.776;2023-03-23T05:55:03;20.20;51.10
10654;DHT22;5375;51.250;6.776;2023-03-23T05:57:30;20.20;51.00
10654;DHT22;5375;51.250;6.776;2023-03-23T05:59:56;20.20;51.00
10654;DHT22;5375;51.250;6.776;2023-03-23T06:04:50;20.20;50.90
10654;DHT22;5375;51.250;6.776;2023-03-23T06:07:15;20.20;50.90
10654;DHT22;5375;51.250;6.776;2023-03-23T06:09:41;20.20;50.90
10654;DHT22;5375;51.250;6.776;2023-03-23T06:12:07;20.20;50.90
10654;DHT22;5375;51.250;6.776;2023-03-23T06:14:35;20.20;50.90
10654;DHT22;5375;51.250;6.776;2023-03-23T06:17:00;20.20;50.90
10654;DHT22;5375;51.250;6.776;2023-03-23T06:19:26;20.20;50.90
10654;DHT22;5375;51.250;6.776;2023-03-23T06:21:53;20.30;51.00
10654;DHT22;5375;51.250;6.776;2023-03-23T06:24:19;20.30;51.00
10654;DHT22;5375;51.250;6.776;2023-03-23T06:29:11;20.30;50.90
10654;DHT22;5375;51.250;6.776;2023-03-23T06:31:42;20.30;50.80
10654;DHT22;5375;51.250;6.776;2023-03-23T06:34:10;20.30;50.80
10654;DHT22;5375;51.250;6.776;2023-03-23T06:39:04;20.30;50.80
10654;DHT22;5375;51.250;6.776;2023-03-23T06:41:32;20.30;50.80
10654;DHT22;5375;51.250;6.776;2023-03-23T06:43:58;20.30;50.80
10654;DHT22;5375;51.250;6.776;2023-03-23T06:46:24;20.30;50.70
10654;DHT22;5375;51.250;6.776;2023-03-23T06:51:17;20.30;50.70
10654;DHT22;5375;51.250;6.776;2023-03-23T06:53:43;20.30;51.30
10654;DHT22;5375;51.250;6.776;2023-03-23T06:56:09;20.30;50.70
10654;DHT22;5375;51.250;6.776;2023-03-23T07:01:01;20.30;50.70
10654;DHT22;5375;51.250;6.776;2023-03-23T07:03:27;20.30;50.70
10654;DHT22;5375;51.250;6.776;2023-03-23T07:05:53;20.20;50.70
10654;DHT22;5375;51.250;6.776;2023-03-23T07:08:19;20.30;50.70
10654;DHT22;5375;51.250;6.776;2023-03-23T07:10:46;20.30;50.70
10654;DHT22;5375;51.250;6.776;2023-03-23T07:13:11;20.30;50.70
10654;DHT22;5375;51.250;6.776;2023-03-23T07:15:38;20.30;50.70
10654;DHT22;5375;51.250;6.776;2023-03-23T07:18:04;20.30;50.70
10654;DHT22;5375;51.250;6.776;2023-03-23T07:20:30;20.30;50.70
10654;DHT22;5375;51.250;6.776;2023-03-23T07:22:55;20.30;50.70
10654;DHT22;5375;51.250;6.776;2023-03-23T07:30:14;20.30;50.60
10654;DHT22;5375;51.250;6.776;2023-03-23T07:32:40;20.30;50.60
10654;DHT22;5375;51.250;6.776;2023-03-23T07:35:07;20.30;50.60
10654;DHT22;5375;51.250;6.776;2023-03-23T07:37:33;20.30;50.60
10654;DHT22;5375;51.250;6.776;2023-03-23T07:42:25;20.30;50.60
10654;DHT22;5375;51.250;6.776;2023-03-23T07:44:51;20.30;50.60
10654;DHT22;5375;51.250;6.776;2023-03-23T07:47:16;20.30;50.60
10654;DHT22;5375;51.250;6.776;2023-03-23T07:49:43;20.40;50.70
10654;DHT22;5375;51.250;6.776;2023-03-23T07:52:09;20.40;50.70
10654;DHT22;5375;51.250;6.776;2023-03-23T07:54:36;20.40;50.60
10654;DHT22;5375;51.250;6.776;2023-03-23T07:57:02;20.30;50.60
10654;DHT22;5375;51.250;6.776;2023-03-23T07:59:28;20.40;50.60
10654;DHT22;5375;51.250;6.776;2023-03-23T08:01:53;20.40;50.70
10654;DHT22;5375;51.250;6.776;2023-03-23T08:04:19;20.30;50.60
10654;DHT22;5375;51.250;6.776;2023-03-23T08:06:44;20.40;50.60
10654;DHT22;5375;51.250;6.776;2023-03-23T08:09:10;20.40;50.70
10654;DHT22;5375;51.250;6.776;2023-03-23T08:11:37;20.30;50.60
10654;DHT22;5375;51.250;6.776;2023-03-23T08:14:04;20.40;50.70
10654;DHT22;5375;51.250;6.776;2023-03-23T08:16:31;20.30;50.60
10654;DHT22;5375;51.250;6.776;2023-03-23T08:18:57;20.40;50.70
10654;DHT22;5375;51.250;6.776;2023-03-23T08:21:23;20.40;50.80
10654;DHT22;5375;51.250;6.776;2023-03-23T08:23:49;20.40;50.80
10654;DHT22;5375;51.250;6.776;2023-03-23T08:26:14;20.40;50.80
10654;DHT22;5375;51.250;6.776;2023-03-23T08:28:41;20.40;50.90
10654;DHT22;5375;51.250;6.776;2023-03-23T08:31:12;20.40;50.90
10654;DHT22;5375;51.250;6.776;2023-03-23T08:33:39;20.40;50.90
10654;DHT22;5375;51.250;6.776;2023-03-23T08:36:07;20.40;50.80
10654;DHT22;5375;51.250;6.776;2023-03-23T08:41:01;20.30;50.80
10654;DHT22;5375;51.250;6.776;2023-03-23T08:43:28;20.40;50.80
10654;DHT22;5375;51.250;6.776;2023-03-23T08:48:21;20.30;50.80
10654;DHT22;5375;51.250;6.776;2023-03-23T08:50:48;20.30;51.30
10654;DHT22;5375;51.250;6.776;2023-03-23T08:53:14;20.30;50.80
10654;DHT22;5375;51.250;6.776;2023-03-23T08:55:39;20.30;50.80
10654;DHT22;5375;51.250;6.776;2023-03-23T08:58:06;20.40;50.90
10654;DHT22;5375;51.250;6.776;2023-03-23T09:00:31;20.40;50.90
10654;DHT22;5375;51.250;6.776;2023-03-23T09:02:58;20.30;50.80
10654;DHT22;5375;51.250;6.776;2023-03-23T09:05:26;20.30;50.80
10654;DHT22;5375;51.250;6.776;2023-03-23T09:07:54;20.40;50.90
10654;DHT22;5375;51.250;6.776;2023-03-23T09:10:20;20.30;50.80
10654;DHT22;5375;51.250;6.776;2023-03-23T09:12:47;20.40;50.90
10654;DHT22;5375;51.250;6.776;2023-03-23T09:15:15;20.40;50.90
10654;DHT22;5375;51.250;6.776;2023-03-23T09:17:44;20.40;50.90
10654;DHT22;5375;51.250;6.776;2023-03-23T09:20:12;20.30;50.80
10654;DHT22;5375;51.250;6.776;2023-03-23T09:22:39;20.30;50.80
10654;DHT22;5375;51.250;6.776;2023-03-23T09:25:07;20.40;50.90
10654;DHT22;5375;51.250;6.776;2023-03-23T09:27:33;20.30;50.90
10654;DHT22;5375;51.250;6.776;2023-03-23T09:29:58;20.40;50.90
10654;DHT22;5375;51.250;6.776;2023-03-23T09:32:27;20.40;50.90
10654;DHT22;5375;51.250;6.776;2023-03-23T09:39:47;20.40;50.90
10654;DHT22;5375;51.250;6.776;2023-03-23T09:48:08;20.40;50.90
10654;DHT22;5375;51.250;6.776;2023-03-23T09:50:42;20.40;50.90
10654;DHT22;5375;51.250;6.776;2023-03-23T09:55:42;20.30;50.80
10654;DHT22;5375;51.250;6.776;2023-03-23T09:58:24;20.30;50.80
10654;DHT22;5375;51.250;6.776;2023-03-23T10:01:09;20.40;50.90
10654;DHT22;5375;51.250;6.776;2023-03-23T10:03:40;20.40;50.80
10654;DHT22;5375;51.250;6.776;2023-03-23T10:06:11;20.40;50.80
10654;DHT22;5375;51.250;6.776;2023-03-23T10:08:44;20.40;50.80
10654;DHT22;5375;51.250;6.776;2023-03-23T10:11:26;20.40;50.80
10654;DHT22;5375;51.250;6.776;2023-03-23T10:16:45;20.40;50.80
10654;DHT22;5375;51.250;6.776;2023-03-23T10:19:26;20.40;50.80
10654;DHT22;5375;51.250;6.776;2023-03-23T10:22:03;20.40;50.80
10654;DHT22;5375;51.250;6.776;2023-03-23T10:25:23;20.40;50.80
10654;DHT22;5375;51.250;6.776;2023-03-23T10:27:33;20.40;50.80
10654;DHT22;5375;51.250;6.776;2023-03-23T10:30:17;20.40;50.80
10654;DHT22;5375;51.250;6.776;2023-03-23T10:35:20;20.40;50.70
10654;DHT22;5375;51.250;6.776;2023-03-23T10:37:53;20.40;50.70
10654;DHT22;5375;51.250;6.776;2023-03-23T10:40:25;20.40;50.80
10654;DHT22;5375;51.250;6.776;2023-03-23T10:42:52;20.40;50.70
10654;DHT22;5375;51.250;6.776;2023-03-23T10:45:21;20.40;50.70
10654;DHT22;5375;51.250;6.776;2023-03-23T10:47:55;20.40;50.70
10654;DHT22;5375;51.250;6.776;2023-03-23T10:50:28;20.40;50.70
10654;DHT22;5375;51.250;6.776;2023-03-23T10:52:57;20.40;50.70
10654;DHT22;5375;51.250;6.776;2023-03-23T10:55:24;20.40;50.70
10654;DHT22;5375;51.250;6.776;2023-03-23T10:58:23;20.40;50.80
10654;DHT22;5375;51.250;6.776;2023-03-23T11:00:50;20.40;50.70
10654;DHT22;5375;51.250;6.776;2023-03-23T11:08:31;20.40;50.70
10654;DHT22;5375;51.250;6.776;2023-03-23T11:11:14;20.40;50.70
10654;DHT22;5375;51.250;6.776;2023-03-23T11:13:46;20.40;50.70
10654;DHT22;5375;51.250;6.776;2023-03-23T11:16:45;20.40;50.70
10654;DHT22;5375;51.250;6.776;2023-03-23T11:19:20;20.40;50.70
10654;DHT22;5375;51.250;6.776;2023-03-23T11:21:49;20.30;50.70
10654;DHT22;5375;51.250;6.776;2023-03-23T11:24:16;20.40;50.70
10654;DHT22;5375;51.250;6.776;2023-03-23T11:26:43;20.30;50.60
10654;DHT22;5375;51.250;6.776;2023-03-23T11:31:42;20.40;50.70
10654;DHT22;5375;51.250;6.776;2023-03-23T11:34:17;20.40;50.70
10654;DHT22;5375;51.250;6.776;2023-03-23T11:36:49;20.40;50.60
10654;DHT22;5375;51.250;6.776;2023-03-23T11:41:47;20.40;50.70
10654;DHT22;5375;51.250;6.776;2023-03-23T11:44:13;20.40;50.60
10654;DHT22;5375;51.250;6.776;2023-03-23T11:47:13;20.40;50.70
10654;DHT22;5375;51.250;6.776;2023-03-23T11:52:58;20.40;50.70
10654;DHT22;5375;51.250;6.776;2023-03-23T11:58:19;20.40;50.70
10654;DHT22;5375;51.250;6.776;2023-03-23T12:03:37;20.40;50.80
10654;DHT22;5375;51.250;6.776;2023-03-23T12:06:06;20.40;50.70
10654;DHT22;5375;51.250;6.776;2023-03-23T12:11:36;20.40;50.70
10654;DHT22;5375;51.250;6.776;2023-03-23T12:17:20;20.40;50.70
10654;DHT22;5375;51.250;6.776;2023-03-23T12:19:31;20.40;50.80
10654;DHT22;5375;51.250;6.776;2023-03-23T12:22:14;20.40;50.80
10654;DHT22;5375;51.250;6.776;2023-03-23T12:51:37;20.40;50.90
10654;DHT22;5375;51.250;6.776;2023-03-23T12:56:46;20.40;50.90
10654;DHT22;5375;51.250;6.776;2023-03-23T13:07:28;20.40;51.00
10654;DHT22;5375;51.250;6.776;2023-03-23T13:12:23;20.40;50.90
10654;DHT22;5375;51.250;6.776;2023-03-23T13:15:23;20.40;50.90
10654;DHT22;5375;51.250;6.776;2023-03-23T13:21:00;20.40;50.90
10654;DHT22;5375;51.250;6.776;2023-03-23T13:23:33;20.40;51.00
10654;DHT22;5375;51.250;6.776;2023-03-23T13:26:17;20.40;51.00
10654;DHT22;5375;51.250;6.776;2023-03-23T13:31:38;20.40;50.90
10654;DHT22;5375;51.250;6.776;2023-03-23T13:41:48;20.40;51.00
10654;DHT22;5375;51.250;6.776;2023-03-23T13:44:25;20.40;51.40
10654;DHT22;5375;51.250;6.776;2023-03-23T13:47:08;20.30;51.60
10654;DHT22;5375;51.250;6.776;2023-03-23T13:49:46;20.40;51.80
10654;DHT22;5375;51.250;6.776;2023-03-23T13:54:49;20.30;52.20
10654;DHT22;5375;51.250;6.776;2023-03-23T14:03:05;20.20;52.70
10654;DHT22;5375;51.250;6.776;2023-03-23T14:08:13;20.10;53.00
10654;DHT22;5375;51.250;6.776;2023-03-23T14:13:43;20.10;53.10
10654;DHT22;5375;51.250;6.776;2023-03-23T14:16:23;20.10;53.10
10654;DHT22;5375;51.250;6.776;2023-03-23T14:19:03;20.10;53.20
10654;DHT22;5375;51.250;6.776;2023-03-23T14:21:38;20.10;53.20
10654;DHT22;5375;51.250;6.776;2023-03-23T14:24:17;20.10;53.20
10654;DHT22;5375;51.250;6.776;2023-03-23T14:29:12;20.10;53.20
10654;DHT22;5375;51.250;6.776;2023-03-23T14:31:39;20.10;53.20
10654;DHT22;5375;51.250;6.776;2023-03-23T14:34:14;20.10;53.20
10654;DHT22;5375;51.250;6.776;2023-03-23T14:36:42;20.10;53.20
10654;DHT22;5375;51.250;6.776;2023-03-23T14:39:22;20.10;53.20
10654;DHT22;5375;51.250;6.776;2023-03-23T14:41:49;20.10;53.20
10654;DHT22;5375;51.250;6.776;2023-03-23T14:44:20;20.10;53.10
10654;DHT22;5375;51.250;6.776;2023-03-23T14:46:47;20.10;53.10
10654;DHT22;5375;51.250;6.776;2023-03-23T14:49:15;20.10;53.10
10654;DHT22;5375;51.250;6.776;2023-03-23T14:51:53;20.10;53.00
10654;DHT22;5375;51.250;6.776;2023-03-23T14:54:25;20.10;52.70
10654;DHT22;5375;51.250;6.776;2023-03-23T14:56:51;20.10;52.50
10654;DHT22;5375;51.250;6.776;2023-03-23T15:01:45;20.20;52.30
10654;DHT22;5375;51.250;6.776;2023-03-23T15:04:13;20.20;52.20
10654;DHT22;5375;51.250;6.776;2023-03-23T15:06:42;20.30;52.20
10654;DHT22;5375;51.250;6.776;2023-03-23T15:09:15;20.30;52.10
10654;DHT22;5375;51.250;6.776;2023-03-23T15:11:49;20.30;52.00
10654;DHT22;5375;51.250;6.776;2023-03-23T15:14:19;20.30;52.00
10654;DHT22;5375;51.250;6.776;2023-03-23T15:16:51;20.30;51.90
10654;DHT22;5375;51.250;6.776;2023-03-23T15:19:32;20.30;51.90
10654;DHT22;5375;51.250;6.776;2023-03-23T15:22:07;20.30;51.90
10654;DHT22;5375;51.250;6.776;2023-03-23T15:24:40;20.30;51.80
10654;DHT22;5375;51.250;6.776;2023-03-23T15:31:57;20.30;51.80
10654;DHT22;5375;51.250;6.776;2023-03-23T15:34:34;20.30;51.70
10654;DHT22;5375;51.250;6.776;2023-03-23T15:37:16;20.30;51.70
10654;DHT22;5375;51.250;6.776;2023-03-23T15:39:44;20.30;51.70
10654;DHT22;5375;51.250;6.776;2023-03-23T15:42:40;20.30;51.70
10654;DHT22;5375;51.250;6.776;2023-03-23T15:50:13;20.30;51.60
10654;DHT22;5375;51.250;6.776;2023-03-23T15:52:40;20.30;51.60
10654;DHT22;5375;51.250;6.776;2023-03-23T15:55:29;20.30;51.60
10654;DHT22;5375;51.250;6.776;2023-03-23T15:58:00;20.30;51.50
10654;DHT22;5375;51.250;6.776;2023-03-23T16:00:28;20.30;51.50
10654;DHT22;5375;51.250;6.776;2023-03-23T16:02:59;20.30;51.40
10654;DHT22;5375;51.250;6.776;2023-03-23T16:05:26;20.30;51.50
10654;DHT22;5375;51.250;6.776;2023-03-23T16:07:58;20.30;51.40
10654;DHT22;5375;51.250;6.776;2023-03-23T16:10:25;20.30;51.40
10654;DHT22;5375;51.250;6.776;2023-03-23T16:12:51;20.30;51.40
10654;DHT22;5375;51.250;6.776;2023-03-23T16:17:44;20.30;51.40
10654;DHT22;5375;51.250;6.776;2023-03-23T16:20:19;20.30;51.30
10654;DHT22;5375;51.250;6.776;2023-03-23T16:22:46;20.30;51.30
10654;DHT22;5375;51.250;6.776;2023-03-23T16:25:12;20.30;51.30
10654;DHT22;5375;51.250;6.776;2023-03-23T16:27:39;20.30;51.30
10654;DHT22;5375;51.250;6.776;2023-03-23T16:30:19;20.30;51.30
10654;DHT22;5375;51.250;6.776;2023-03-23T16:35:12;20.30;51.30
10654;DHT22;5375;51.250;6.776;2023-03-23T16:37:38;20.30;51.30
10654;DHT22;5375;51.250;6.776;2023-03-23T16:40:05;20.30;51.30
10654;DHT22;5375;51.250;6.776;2023-03-23T16:42:31;20.30;51.20
10654;DHT22;5375;51.250;6.776;2023-03-23T16:44:57;20.30;51.20
10654;DHT22;5375;51.250;6.776;2023-03-23T16:49:50;20.30;51.20
10654;DHT22;5375;51.250;6.776;2023-03-23T16:52:16;20.30;51.20
10654;DHT22;5375;51.250;6.776;2023-03-23T16:54:42;20.20;51.20
10654;DHT22;5375;51.250;6.776;2023-03-23T16:59:34;20.30;51.20
10654;DHT22;5375;51.250;6.776;2023-03-23T17:02:00;20.30;51.20
10654;DHT22;5375;51.250;6.776;2023-03-23T17:04:31;20.20;51.20
10654;DHT22;5375;51.250;6.776;2023-03-23T17:06:57;20.20;51.20
10654;DHT22;5375;51.250;6.776;2023-03-23T17:09:25;20.20;51.20
10654;DHT22;5375;51.250;6.776;2023-03-23T17:11:51;20.20;51.80
10654;DHT22;5375;51.250;6.776;2023-03-23T17:14:17;20.20;51.20
10654;DHT22;5375;51.250;6.776;2023-03-23T17:19:09;20.20;51.20
10654;DHT22;5375;51.250;6.776;2023-03-23T17:21:34;20.20;51.20
10654;DHT22;5375;51.250;6.776;2023-03-23T17:26:26;20.20;51.10
10654;DHT22;5375;51.250;6.776;2023-03-23T17:33:44;20.20;51.20
10654;DHT22;5375;51.250;6.776;2023-03-23T17:36:09;20.20;51.10
10654;DHT22;5375;51.250;6.776;2023-03-23T17:41:01;20.20;51.10
10654;DHT22;5375;51.250;6.776;2023-03-23T17:43:29;20.20;51.10
10654;DHT22;5375;51.250;6.776;2023-03-23T17:45:56;20.20;51.00
10654;DHT22;5375;51.250;6.776;2023-03-23T17:48:21;20.20;51.10
10654;DHT22;5375;51.250;6.776;2023-03-23T17:50:48;20.20;51.00
10654;DHT22;5375;51.250;6.776;2023-03-23T17:53:14;20.20;51.00
10654;DHT22;5375;51.250;6.776;2023-03-23T17:55:40;20.20;51.00
10654;DHT22;5375;51.250;6.776;2023-03-23T17:58:08;20.20;51.00
10654;DHT22;5375;51.250;6.776;2023-03-23T18:00:34;20.20;51.00
10654;DHT22;5375;51.250;6.776;2023-03-23T18:05:26;20.20;51.00
10654;DHT22;5375;51.250;6.776;2023-03-23T18:07:52;20.30;51.10
10654;DHT22;5375;51.250;6.776;2023-03-23T18:12:44;20.20;51.00
10654;DHT22;5375;51.250;6.776;2023-03-23T18:15:13;20.20;51.00
10654;DHT22;5375;51.250;6.776;2023-03-23T18:17:38;20.20;51.00
10654;DHT22;5375;51.250;6.776;2023-03-23T18:20:05;20.20;51.00
10654;DHT22;5375;51.250;6.776;2023-03-23T18:22:31;20.20;50.90
10654;DHT22;5375;51.250;6.776;2023-03-23T18:27:23;20.20;51.00
10654;DHT22;5375;51.250;6.776;2023-03-23T18:32:14;20.20;50.90
10654;DHT22;5375;51.250;6.776;2023-03-23T18:34:41;20.20;50.90
10654;DHT22;5375;51.250;6.776;2023-03-23T18:37:07;20.20;50.90
10654;DHT22;5375;51.250;6.776;2023-03-23T18:41:59;20.30;51.00
10654;DHT22;5375;51.250;6.776;2023-03-23T18:44:25;20.30;51.00
10654;DHT22;5375;51.250;6.776;2023-03-23T18:46:50;20.30;51.00
10654;DHT22;5375;51.250;6.776;2023-03-23T18:49:16;20.30;51.10
10654;DHT22;5375;51.250;6.776;2023-03-23T18:54:08;20.30;51.10
10654;DHT22;5375;51.250;6.776;2023-03-23T18:56:33;20.30;51.10
10654;DHT22;5375;51.250;6.776;2023-03-23T18:58:59;20.30;51.10
10654;DHT22;5375;51.250;6.776;2023-03-23T19:01:24;20.30;51.10
10654;DHT22;5375;51.250;6.776;2023-03-23T19:03:51;20.30;51.10
10654;DHT22;5375;51.250;6.776;2023-03-23T19:06:22;20.20;51.00
10654;DHT22;5375;51.250;6.776;2023-03-23T19:08:49;20.20;51.00
10654;DHT22;5375;51.250;6.776;2023-03-23T19:11:17;20.20;51.00
10654;DHT22;5375;51.250;6.776;2023-03-23T19:13:44;20.20;51.00
10654;DHT22;5375;51.250;6.776;2023-03-23T19:18:36;20.20;50.90
10654;DHT22;5375;51.250;6.776;2023-03-23T19:21:02;20.20;51.00
10654;DHT22;5375;51.250;6.776;2023-03-23T19:23:29;20.20;51.00
10654;DHT22;5375;51.250;6.776;2023-03-23T19:25:56;20.30;51.00
10654;DHT22;5375;51.250;6.776;2023-03-23T19:30:53;20.30;51.00
10654;DHT22;5375;51.250;6.776;2023-03-23T19:33:20;20.30;51.00
10654;DHT22;5375;51.250;6.776;2023-03-23T19:35:50;20.30;51.00
10654;DHT22;5375;51.250;6.776;2023-03-23T19:38:20;20.30;51.00
10654;DHT22;5375;51.250;6.776;2023-03-23T19:40:56;20.30;51.10
10654;DHT22;5375;51.250;6.776;2023-03-23T19:43:22;20.30;51.10
10654;DHT22;5375;51.250;6.776;2023-03-23T19:45:48;20.30;51.10
10654;DHT22;5375;51.250;6.776;2023-03-23T19:48:15;20.20;51.00
10654;DHT22;5375;51.250;6.776;2023-03-23T19:50:42;20.20;51.00
10654;DHT22;5375;51.250;6.776;2023-03-23T19:53:08;20.30;51.10
10654;DHT22;5375;51.250;6.776;2023-03-23T19:55:35;20.30;51.00
10654;DHT22;5375;51.250;6.776;2023-03-23T19:58:01;20.30;51.00
10654;DHT22;5375;51.250;6.776;2023-03-23T20:00:27;20.30;51.00
10654;DHT22;5375;51.250;6.776;2023-03-23T20:02:53;20.30;51.00